createdAt,value
2023-05-25T00:01:02.623Z,627.00
2023-05-25T00:01:54.179Z,626.00
2023-05-25T00:02:54.330Z,626.00
2023-05-25T00:03:54.227Z,625.00
2023-05-25T00:04:54.175Z,624.00
2023-05-25T00:05:54.209Z,626.00
2023-05-25T00:06:54.208Z,628.00
2023-05-25T00:07:54.190Z,629.00
2023-05-25T00:08:54.206Z,625.00
2023-05-25T00:09:54.214Z,625.00
2023-05-25T00:10:54.223Z,626.00
2023-05-25T00:11:54.257Z,627.00
2023-05-25T00:12:54.234Z,627.00
2023-05-25T00:13:54.243Z,627.00
2023-05-25T00:14:54.249Z,629.00
2023-05-25T00:15:54.342Z,627.00
2023-05-25T00:16:54.333Z,628.00
2023-05-25T00:17:54.319Z,627.00
2023-05-25T00:18:54.278Z,625.00
2023-05-25T00:19:54.304Z,625.00
2023-05-25T00:20:54.374Z,623.00
2023-05-25T00:21:54.309Z,623.00
2023-05-25T00:22:54.315Z,623.00
2023-05-25T00:23:54.330Z,622.00
2023-05-25T00:24:54.342Z,623.00
2023-05-25T00:25:54.342Z,623.00
2023-05-25T00:26:54.351Z,622.00
2023-05-25T00:27:54.389Z,619.00
2023-05-25T00:28:54.368Z,620.00
2023-05-25T00:29:54.376Z,622.00
2023-05-25T00:30:54.423Z,621.00
2023-05-25T00:31:54.432Z,620.00
2023-05-25T00:32:54.529Z,619.00
2023-05-25T00:33:54.539Z,619.00
2023-05-25T00:34:54.592Z,620.00
2023-05-25T00:35:54.659Z,621.00
2023-05-25T00:36:54.717Z,620.00
2023-05-25T00:37:54.788Z,622.00
2023-05-25T00:38:54.825Z,625.00
2023-05-25T00:39:54.881Z,624.00
2023-05-25T00:40:54.953Z,624.00
2023-05-25T00:41:54.992Z,625.00
2023-05-25T00:42:55.055Z,625.00
2023-05-25T00:43:55.132Z,624.00
2023-05-25T00:44:55.153Z,626.00
2023-05-25T00:45:55.208Z,623.00
2023-05-25T00:46:55.325Z,623.00
2023-05-25T00:47:55.456Z,622.00
2023-05-25T00:48:55.367Z,627.00
2023-05-25T00:49:55.435Z,628.00
2023-05-25T00:50:55.488Z,628.00
2023-05-25T00:51:55.523Z,627.00
2023-05-25T00:52:55.583Z,628.00
2023-05-25T00:53:55.662Z,625.00
2023-05-25T00:54:55.713Z,623.00
2023-05-25T00:55:55.753Z,621.00
2023-05-25T00:56:55.803Z,621.00
2023-05-25T00:57:55.857Z,619.00
2023-05-25T00:58:55.931Z,619.00
2023-05-25T00:59:56.005Z,619.00
2023-05-25T01:00:56.036Z,618.00
2023-05-25T01:01:56.125Z,620.00
2023-05-25T01:02:56.208Z,621.00
2023-05-25T01:03:56.242Z,621.00
2023-05-25T01:04:56.289Z,618.00
2023-05-25T01:05:56.329Z,617.00
2023-05-25T01:06:56.386Z,616.00
2023-05-25T01:07:56.444Z,616.00
2023-05-25T01:08:56.523Z,617.00
2023-05-25T01:09:56.554Z,615.00
2023-05-25T01:10:56.612Z,617.00
2023-05-25T01:11:56.676Z,615.00
2023-05-25T01:12:56.721Z,616.00
2023-05-25T01:13:56.781Z,615.00
2023-05-25T01:14:56.845Z,616.00
2023-05-25T01:15:57.035Z,617.00
2023-05-25T01:16:56.942Z,616.00
2023-05-25T01:17:57.007Z,616.00
2023-05-25T01:18:57.049Z,615.00
2023-05-25T01:20:09.532Z,616.00
2023-05-25T01:20:57.242Z,615.00
2023-05-25T01:21:57.130Z,614.00
2023-05-25T01:22:57.145Z,614.00
2023-05-25T01:23:57.165Z,613.00
2023-05-25T01:24:57.174Z,615.00
2023-05-25T01:25:57.188Z,618.00
2023-05-25T01:26:57.199Z,616.00
2023-05-25T01:27:57.223Z,615.00
2023-05-25T01:28:57.241Z,616.00
2023-05-25T01:29:57.245Z,615.00
2023-05-25T01:30:57.257Z,614.00
2023-05-25T01:31:57.309Z,613.00
2023-05-25T01:32:57.335Z,613.00
2023-05-25T01:33:57.295Z,614.00
2023-05-25T01:34:57.300Z,616.00
2023-05-25T01:35:57.312Z,618.00
2023-05-25T01:36:57.336Z,617.00
2023-05-25T01:37:57.342Z,617.00
2023-05-25T01:38:57.359Z,617.00
2023-05-25T01:39:57.379Z,615.00
2023-05-25T01:40:57.391Z,615.00
2023-05-25T01:41:57.412Z,614.00
2023-05-25T01:42:57.430Z,615.00
2023-05-25T01:43:57.435Z,614.00
2023-05-25T01:44:57.461Z,615.00
2023-05-25T01:45:57.480Z,616.00
2023-05-25T01:46:57.475Z,615.00
2023-05-25T01:47:57.546Z,617.00
2023-05-25T01:48:57.511Z,617.00
2023-05-25T01:49:57.514Z,616.00
2023-05-25T01:50:57.531Z,616.00
2023-05-25T01:51:57.676Z,616.00
2023-05-25T01:52:57.617Z,618.00
2023-05-25T01:53:57.667Z,618.00
2023-05-25T01:54:57.734Z,619.00
2023-05-25T01:55:57.782Z,618.00
2023-05-25T01:56:57.856Z,616.00
2023-05-25T01:57:57.952Z,616.00
2023-05-25T01:58:57.969Z,619.00
2023-05-25T01:59:58.006Z,621.00
2023-05-25T02:00:58.092Z,619.00
2023-05-25T02:01:58.205Z,620.00
2023-05-25T02:02:58.213Z,620.00
2023-05-25T02:03:58.328Z,619.00
2023-05-25T02:04:58.659Z,618.00
2023-05-25T02:05:58.653Z,614.00
2023-05-25T02:06:58.662Z,614.00
2023-05-25T02:07:58.652Z,615.00
2023-05-25T02:08:58.650Z,617.00
2023-05-25T02:09:58.678Z,618.00
2023-05-25T02:10:58.656Z,617.00
2023-05-25T02:11:58.714Z,620.00
2023-05-25T02:12:58.769Z,623.00
2023-05-25T02:13:58.828Z,622.00
2023-05-25T02:14:58.877Z,621.00
2023-05-25T02:15:58.973Z,619.00
2023-05-25T02:16:58.992Z,619.00
2023-05-25T02:17:59.068Z,619.00
2023-05-25T02:18:59.121Z,618.00
2023-05-25T02:19:59.269Z,618.00
2023-05-25T02:20:59.598Z,618.00
2023-05-25T02:21:59.585Z,616.00
2023-05-25T02:22:59.593Z,619.00
2023-05-25T02:23:59.602Z,618.00
2023-05-25T02:24:59.587Z,618.00
2023-05-25T02:25:59.593Z,616.00
2023-05-25T02:26:59.602Z,614.00
2023-05-25T02:27:59.656Z,613.00
2023-05-25T02:28:59.722Z,613.00
2023-05-25T02:29:59.782Z,616.00
2023-05-25T02:30:59.892Z,617.00
2023-05-25T02:31:59.926Z,616.00
2023-05-25T02:33:00.032Z,615.00
2023-05-25T02:34:00.057Z,614.00
2023-05-25T02:35:00.176Z,614.00
2023-05-25T02:36:00.226Z,613.00
2023-05-25T02:37:00.213Z,614.00
2023-05-25T02:38:00.284Z,615.00
2023-05-25T02:39:00.333Z,616.00
2023-05-25T02:40:00.390Z,612.00
2023-05-25T02:41:00.464Z,612.00
2023-05-25T02:42:00.507Z,612.00
2023-05-25T02:43:00.561Z,613.00
2023-05-25T02:44:00.638Z,615.00
2023-05-25T02:45:00.686Z,613.00
2023-05-25T02:46:00.753Z,614.00
2023-05-25T02:47:00.966Z,614.00
2023-05-25T02:48:00.917Z,616.00
2023-05-25T02:49:00.951Z,613.00
2023-05-25T02:50:01.013Z,612.00
2023-05-25T02:51:01.071Z,613.00
2023-05-25T02:52:01.155Z,614.00
2023-05-25T02:53:01.210Z,614.00
2023-05-25T02:54:01.296Z,611.00
2023-05-25T02:55:01.329Z,612.00
2023-05-25T02:56:01.393Z,612.00
2023-05-25T02:57:01.463Z,611.00
2023-05-25T02:58:01.529Z,613.00
2023-05-25T02:59:01.594Z,614.00
2023-05-25T03:00:01.653Z,612.00
2023-05-25T03:01:01.792Z,610.00
2023-05-25T03:02:01.789Z,607.00
2023-05-25T03:03:02.016Z,607.00
2023-05-25T03:04:02.067Z,607.00
2023-05-25T03:05:04.156Z,606.00
2023-05-25T03:06:01.989Z,606.00
2023-05-25T03:07:02.019Z,603.00
2023-05-25T03:08:02.049Z,605.00
2023-05-25T03:09:02.050Z,605.00
2023-05-25T03:10:02.066Z,603.00
2023-05-25T03:11:02.058Z,602.00
2023-05-25T03:12:02.081Z,603.00
2023-05-25T03:13:02.117Z,602.00
2023-05-25T03:14:02.142Z,600.00
2023-05-25T03:15:02.151Z,600.00
2023-05-25T03:16:02.148Z,600.00
2023-05-25T03:17:02.195Z,601.00
2023-05-25T03:18:02.261Z,601.00
2023-05-25T03:19:02.189Z,598.00
2023-05-25T03:20:02.302Z,598.00
2023-05-25T03:21:02.228Z,597.00
2023-05-25T03:22:02.241Z,599.00
2023-05-25T03:23:02.256Z,602.00
2023-05-25T03:24:02.399Z,602.00
2023-05-25T03:25:02.283Z,601.00
2023-05-25T03:26:02.301Z,600.00
2023-05-25T03:27:02.320Z,602.00
2023-05-25T03:28:02.328Z,606.00
2023-05-25T03:29:02.345Z,608.00
2023-05-25T03:30:02.414Z,605.00
2023-05-25T03:31:02.478Z,608.00
2023-05-25T03:32:02.564Z,607.00
2023-05-25T03:33:02.617Z,605.00
2023-05-25T03:34:02.671Z,605.00
2023-05-25T03:35:02.713Z,604.00
2023-05-25T03:36:02.775Z,603.00
2023-05-25T03:37:02.849Z,603.00
2023-05-25T03:38:02.907Z,602.00
2023-05-25T03:39:02.975Z,602.00
2023-05-25T03:40:03.101Z,605.00
2023-05-25T03:41:03.118Z,606.00
2023-05-25T03:42:03.194Z,605.00
2023-05-25T03:43:03.243Z,603.00
2023-05-25T03:44:03.303Z,602.00
2023-05-25T03:45:03.396Z,602.00
2023-05-25T03:46:03.485Z,601.00
2023-05-25T03:47:03.499Z,601.00
2023-05-25T03:48:03.609Z,602.00
2023-05-25T03:49:03.632Z,605.00
2023-05-25T03:50:03.698Z,608.00
2023-05-25T03:51:03.766Z,608.00
2023-05-25T03:52:03.829Z,605.00
2023-05-25T03:53:03.899Z,606.00
2023-05-25T03:54:03.975Z,607.00
2023-05-25T03:55:04.053Z,607.00
2023-05-25T03:56:04.138Z,609.00
2023-05-25T03:57:04.185Z,609.00
2023-05-25T03:58:04.624Z,605.00
2023-05-25T03:59:04.646Z,599.00
2023-05-25T04:00:04.715Z,598.00
2023-05-25T04:01:05.413Z,598.00
2023-05-25T04:02:04.646Z,601.00
2023-05-25T04:03:04.746Z,602.00
2023-05-25T04:04:04.764Z,603.00
2023-05-25T04:05:04.726Z,603.00
2023-05-25T04:06:04.788Z,599.00
2023-05-25T04:07:04.847Z,601.00
2023-05-25T04:08:04.918Z,602.00
2023-05-25T04:09:04.989Z,603.00
2023-05-25T04:10:05.058Z,602.00
2023-05-25T04:11:05.178Z,604.00
2023-05-25T04:12:05.661Z,605.00
2023-05-25T04:13:05.599Z,606.00
2023-05-25T04:14:05.595Z,607.00
2023-05-25T04:15:05.613Z,607.00
2023-05-25T04:16:05.628Z,605.00
2023-05-25T04:17:05.589Z,605.00
2023-05-25T04:18:05.669Z,606.00
2023-05-25T04:19:05.661Z,605.00
2023-05-25T04:20:05.733Z,604.00
2023-05-25T04:21:05.796Z,605.00
2023-05-25T04:22:05.856Z,604.00
2023-05-25T04:23:05.910Z,604.00
2023-05-25T04:24:05.990Z,603.00
2023-05-25T04:25:06.057Z,602.00
2023-05-25T04:26:06.198Z,602.00
2023-05-25T04:27:06.199Z,603.00
2023-05-25T04:28:06.293Z,604.00
2023-05-25T04:29:06.325Z,605.00
2023-05-25T04:30:06.395Z,605.00
2023-05-25T04:31:06.563Z,601.00
2023-05-25T04:32:06.563Z,600.00
2023-05-25T04:33:06.632Z,602.00
2023-05-25T04:34:06.670Z,601.00
2023-05-25T04:35:06.735Z,600.00
2023-05-25T04:36:06.817Z,599.00
2023-05-25T04:37:06.883Z,596.00
2023-05-25T04:38:06.956Z,595.00
2023-05-25T04:39:07.021Z,597.00
2023-05-25T04:40:07.095Z,599.00
2023-05-25T04:41:07.178Z,598.00
2023-05-25T04:42:07.242Z,594.00
2023-05-25T04:43:07.317Z,595.00
2023-05-25T04:44:10.180Z,594.00
2023-05-25T04:45:07.413Z,596.00
2023-05-25T04:46:07.454Z,596.00
2023-05-25T04:47:07.450Z,596.00
2023-05-25T04:48:07.593Z,595.00
2023-05-25T04:49:07.488Z,598.00
2023-05-25T04:50:07.506Z,597.00
2023-05-25T04:51:07.531Z,598.00
2023-05-25T04:52:07.546Z,597.00
2023-05-25T04:53:07.565Z,596.00
2023-05-25T04:54:07.612Z,597.00
2023-05-25T04:55:07.585Z,600.00
2023-05-25T04:56:07.616Z,599.00
2023-05-25T04:57:07.620Z,598.00
2023-05-25T04:58:07.643Z,597.00
2023-05-25T04:59:07.652Z,598.00
2023-05-25T05:00:07.713Z,597.00
2023-05-25T05:01:07.757Z,599.00
2023-05-25T05:02:07.731Z,600.00
2023-05-25T05:03:07.820Z,599.00
2023-05-25T05:04:07.817Z,599.00
2023-05-25T05:05:07.776Z,597.00
2023-05-25T05:06:07.816Z,595.00
2023-05-25T05:07:07.884Z,595.00
2023-05-25T05:08:07.953Z,599.00
2023-05-25T05:09:08.044Z,597.00
2023-05-25T05:10:08.086Z,598.00
2023-05-25T05:11:08.158Z,596.00
2023-05-25T05:12:10.616Z,598.00
2023-05-25T05:13:08.224Z,599.00
2023-05-25T05:14:08.242Z,598.00
2023-05-25T05:15:08.254Z,598.00
2023-05-25T05:16:08.291Z,596.00
2023-05-25T05:17:15.685Z,597.00
2023-05-25T05:18:08.350Z,598.00
2023-05-25T05:19:08.315Z,596.00
2023-05-25T05:20:08.462Z,595.00
2023-05-25T05:21:08.346Z,595.00
2023-05-25T05:22:08.365Z,596.00
2023-05-25T05:23:08.372Z,596.00
2023-05-25T05:24:08.529Z,596.00
2023-05-25T05:25:08.386Z,593.00
2023-05-25T05:26:08.406Z,595.00
2023-05-25T05:27:08.430Z,595.00
2023-05-25T05:28:08.435Z,597.00
2023-05-25T05:29:08.478Z,596.00
2023-05-25T05:30:08.491Z,599.00
2023-05-25T05:31:08.652Z,599.00
2023-05-25T05:32:08.520Z,597.00
2023-05-25T05:33:08.616Z,597.00
2023-05-25T05:34:08.583Z,596.00
2023-05-25T05:35:09.526Z,595.00
2023-05-25T05:36:08.596Z,596.00
2023-05-25T05:37:08.588Z,596.00
2023-05-25T05:38:08.607Z,597.00
2023-05-25T05:39:09.044Z,596.00
2023-05-25T05:40:08.647Z,596.00
2023-05-25T05:41:08.663Z,596.00
2023-05-25T05:42:08.775Z,594.00
2023-05-25T05:43:09.041Z,594.00
2023-05-25T05:44:09.034Z,596.00
2023-05-25T05:45:09.037Z,597.00
2023-05-25T05:46:08.780Z,599.00
2023-05-25T05:47:08.812Z,596.00
2023-05-25T05:48:09.085Z,596.00
2023-05-25T05:49:09.052Z,594.00
2023-05-25T05:50:09.010Z,594.00
2023-05-25T05:51:09.059Z,596.00
2023-05-25T05:52:09.149Z,596.00
2023-05-25T05:53:10.311Z,597.00
2023-05-25T05:54:09.544Z,599.00
2023-05-25T05:56:16.733Z,603.00
2023-05-25T05:57:41.177Z,604.00
2023-05-25T05:58:12.594Z,607.00
2023-05-25T05:59:25.178Z,608.00
2023-05-25T06:00:10.737Z,608.00
2023-05-25T06:01:25.212Z,607.00
2023-05-25T06:02:17.116Z,607.00
2023-05-25T06:04:17.423Z,606.00
2023-05-25T06:06:25.305Z,604.00
2023-05-25T06:07:12.895Z,603.00
2023-05-25T06:10:17.148Z,607.00
2023-05-25T06:12:09.788Z,605.00
2023-05-25T06:13:09.775Z,606.00
2023-05-25T06:14:10.797Z,605.00
2023-05-25T06:15:13.046Z,605.00
2023-05-25T06:16:09.833Z,602.00
2023-05-25T06:17:11.094Z,603.00
2023-05-25T06:18:17.484Z,605.00
2023-05-25T06:19:11.663Z,607.00
2023-05-25T06:20:18.186Z,609.00
2023-05-25T06:21:12.734Z,611.00
2023-05-25T06:22:18.080Z,610.00
2023-05-25T06:23:11.661Z,610.00
2023-05-25T06:24:11.050Z,610.00
2023-05-25T06:25:26.266Z,609.00
2023-05-25T06:26:10.661Z,608.00
2023-05-25T06:27:10.663Z,609.00
2023-05-25T06:28:10.682Z,608.00
2023-05-25T06:29:10.678Z,607.00
2023-05-25T06:30:10.684Z,607.00
2023-05-25T06:31:10.690Z,609.00
2023-05-25T06:32:14.036Z,611.00
2023-05-25T06:33:11.590Z,614.00
2023-05-25T06:34:10.657Z,615.00
2023-05-25T06:35:10.650Z,613.00
2023-05-25T06:36:10.679Z,614.00
2023-05-25T06:37:11.649Z,615.00
2023-05-25T06:38:10.663Z,614.00
2023-05-25T06:39:11.099Z,615.00
2023-05-25T06:40:10.656Z,616.00
2023-05-25T06:41:10.866Z,614.00
2023-05-25T06:42:11.832Z,617.00
2023-05-25T06:43:18.497Z,618.00
2023-05-25T06:44:11.094Z,617.00
2023-05-25T06:45:10.828Z,617.00
2023-05-25T06:47:11.584Z,616.00
2023-05-25T06:48:10.926Z,615.00
2023-05-25T06:49:18.454Z,612.00
2023-05-25T06:50:10.867Z,613.00
2023-05-25T06:51:10.871Z,614.00
2023-05-25T06:52:10.903Z,616.00
2023-05-25T06:53:18.303Z,617.00
2023-05-25T06:54:11.107Z,617.00
2023-05-25T06:55:14.116Z,620.00
2023-05-25T06:56:10.937Z,620.00
2023-05-25T06:57:11.960Z,622.00
2023-05-25T06:58:12.007Z,621.00
2023-05-25T06:59:10.967Z,619.00
2023-05-25T07:00:10.961Z,617.00
2023-05-25T07:01:10.997Z,617.00
2023-05-25T07:02:10.992Z,615.00
2023-05-25T07:03:11.041Z,616.00
2023-05-25T07:04:11.082Z,616.00
2023-05-25T07:05:11.086Z,617.00
2023-05-25T07:06:11.089Z,617.00
2023-05-25T07:07:11.123Z,620.00
2023-05-25T07:08:11.220Z,620.00
2023-05-25T07:09:12.242Z,620.00
2023-05-25T07:10:11.644Z,623.00
2023-05-25T07:11:11.652Z,624.00
2023-05-25T07:12:12.088Z,626.00
2023-05-25T07:13:11.659Z,628.00
2023-05-25T07:14:11.660Z,630.00
2023-05-25T07:15:11.654Z,631.00
2023-05-25T07:16:12.090Z,630.00
2023-05-25T07:17:11.725Z,626.00
2023-05-25T07:18:11.886Z,627.00
2023-05-25T07:19:12.854Z,627.00
2023-05-25T07:20:11.946Z,628.00
2023-05-25T07:21:12.008Z,630.00
2023-05-25T07:22:12.046Z,629.00
2023-05-25T07:23:12.107Z,627.00
2023-05-25T07:24:15.388Z,627.00
2023-05-25T07:25:12.173Z,627.00
2023-05-25T07:26:12.781Z,627.00
2023-05-25T07:27:12.196Z,628.00
2023-05-25T07:28:12.382Z,631.00
2023-05-25T07:29:12.580Z,632.00
2023-05-25T07:30:12.230Z,633.00
2023-05-25T07:31:12.268Z,636.00
2023-05-25T07:32:12.262Z,633.00
2023-05-25T07:33:12.266Z,630.00
2023-05-25T07:34:12.586Z,630.00
2023-05-25T07:35:12.323Z,630.00
2023-05-25T07:36:15.515Z,631.00
2023-05-25T07:37:15.840Z,629.00
2023-05-25T07:38:27.992Z,627.00
2023-05-25T07:39:12.587Z,627.00
2023-05-25T07:40:12.421Z,627.00
2023-05-25T07:41:12.393Z,627.00
2023-05-25T07:42:12.441Z,629.00
2023-05-25T07:44:12.437Z,632.00
2023-05-25T07:45:12.467Z,629.00
2023-05-25T07:46:12.486Z,629.00
2023-05-25T07:47:13.546Z,627.00
2023-05-25T07:48:13.616Z,630.00
2023-05-25T07:49:12.550Z,631.00
2023-05-25T07:50:12.532Z,636.00
2023-05-25T07:51:12.551Z,638.00
2023-05-25T07:52:12.569Z,638.00
2023-05-25T07:53:12.612Z,638.00
2023-05-25T07:54:12.631Z,639.00
2023-05-25T07:55:12.705Z,639.00
2023-05-25T07:56:13.550Z,637.00
2023-05-25T07:57:12.715Z,636.00
2023-05-25T07:58:13.202Z,637.00
2023-05-25T08:00:12.835Z,636.00
2023-05-25T08:01:13.175Z,637.00
2023-05-25T08:02:16.085Z,638.00
2023-05-25T08:03:12.987Z,640.00
2023-05-25T08:04:13.012Z,640.00
2023-05-25T08:05:13.078Z,640.00
2023-05-25T08:06:12.915Z,636.00
2023-05-25T08:07:13.007Z,637.00
2023-05-25T08:08:13.100Z,637.00
2023-05-25T08:09:13.092Z,638.00
2023-05-25T08:10:12.991Z,639.00
2023-05-25T08:11:13.004Z,641.00
2023-05-25T08:12:26.973Z,642.00
2023-05-25T08:13:13.046Z,646.00
2023-05-25T08:14:13.170Z,648.00
2023-05-25T08:15:13.045Z,651.00
2023-05-25T08:16:13.066Z,654.00
2023-05-25T08:17:13.185Z,657.00
2023-05-25T08:18:13.139Z,657.00
2023-05-25T08:19:13.088Z,658.00
2023-05-25T08:20:13.128Z,657.00
2023-05-25T08:21:13.125Z,656.00
2023-05-25T08:22:13.131Z,655.00
2023-05-25T08:23:13.182Z,660.00
2023-05-25T08:24:13.620Z,657.00
2023-05-25T08:25:13.193Z,663.00
2023-05-25T08:26:31.249Z,660.00
2023-05-25T08:27:13.246Z,659.00
2023-05-25T08:28:13.246Z,663.00
2023-05-25T08:29:13.608Z,663.00
2023-05-25T08:30:13.226Z,668.00
2023-05-25T08:31:13.259Z,666.00
2023-05-25T08:32:14.025Z,666.00
2023-05-25T08:33:13.518Z,669.00
2023-05-25T08:34:16.816Z,668.00
2023-05-25T08:35:13.293Z,669.00
2023-05-25T08:36:13.320Z,671.00
2023-05-25T08:37:13.315Z,675.00
2023-05-25T08:38:13.678Z,681.00
2023-05-25T08:39:13.622Z,678.00
2023-05-25T08:40:13.357Z,675.00
2023-05-25T08:41:13.390Z,672.00
2023-05-25T08:42:13.425Z,669.00
2023-05-25T08:43:14.396Z,667.00
2023-05-25T08:44:13.658Z,671.00
2023-05-25T08:45:22.533Z,673.00
2023-05-25T08:46:13.492Z,675.00
2023-05-25T08:47:16.709Z,677.00
2023-05-25T08:48:26.878Z,680.00
2023-05-25T08:49:29.119Z,679.00
2023-05-25T08:50:13.526Z,685.00
2023-05-25T08:51:13.677Z,687.00
2023-05-25T08:52:13.513Z,687.00
2023-05-25T08:53:13.515Z,693.00
2023-05-25T08:54:13.531Z,698.00
2023-05-25T08:55:13.541Z,700.00
2023-05-25T08:56:13.552Z,701.00
2023-05-25T08:57:13.581Z,700.00
2023-05-25T08:58:13.570Z,699.00
2023-05-25T08:59:13.592Z,699.00
2023-05-25T09:00:13.619Z,701.00
2023-05-25T09:01:14.115Z,702.00
2023-05-25T09:02:13.713Z,705.00
2023-05-25T09:03:13.718Z,706.00
2023-05-25T09:04:13.667Z,709.00
2023-05-25T09:05:13.644Z,710.00
2023-05-25T09:06:13.663Z,709.00
2023-05-25T09:07:13.668Z,710.00
2023-05-25T09:08:13.694Z,713.00
2023-05-25T09:09:13.688Z,715.00
2023-05-25T09:10:13.707Z,717.00
2023-05-25T09:11:16.905Z,723.00
2023-05-25T09:12:14.674Z,727.00
2023-05-25T09:13:22.181Z,727.00
2023-05-25T09:14:13.748Z,726.00
2023-05-25T09:15:13.749Z,725.00
2023-05-25T09:16:13.843Z,728.00
2023-05-25T09:17:15.050Z,731.00
2023-05-25T09:18:13.825Z,738.00
2023-05-25T09:19:13.767Z,741.00
2023-05-25T09:20:14.111Z,750.00
2023-05-25T09:21:13.777Z,755.00
2023-05-25T09:22:16.167Z,747.00
2023-05-25T09:23:13.803Z,744.00
2023-05-25T09:24:14.005Z,741.00
2023-05-25T09:25:13.829Z,744.00
2023-05-25T09:26:29.764Z,743.00
2023-05-25T09:27:13.850Z,741.00
2023-05-25T09:28:26.387Z,744.00
2023-05-25T09:29:14.123Z,749.00
2023-05-25T09:30:13.877Z,753.00
2023-05-25T09:31:13.932Z,754.00
2023-05-25T09:32:13.961Z,758.00
2023-05-25T09:33:21.676Z,762.00
2023-05-25T09:34:14.218Z,754.00
2023-05-25T09:35:14.937Z,750.00
2023-05-25T09:36:14.200Z,754.00
2023-05-25T09:37:17.556Z,755.00
2023-05-25T09:38:14.122Z,753.00
2023-05-25T09:39:14.264Z,753.00
2023-05-25T09:40:17.814Z,754.00
2023-05-25T09:41:15.789Z,757.00
2023-05-25T09:42:45.806Z,760.00
2023-05-25T09:43:22.006Z,759.00
2023-05-25T09:44:15.021Z,756.00
2023-05-25T09:45:14.101Z,759.00
2023-05-25T09:46:14.099Z,763.00
2023-05-25T09:47:14.255Z,766.00
2023-05-25T09:48:14.130Z,768.00
2023-05-25T09:49:21.457Z,773.00
2023-05-25T09:50:14.272Z,774.00
2023-05-25T09:51:14.117Z,772.00
2023-05-25T09:52:14.078Z,772.00
2023-05-25T09:53:14.098Z,771.00
2023-05-25T09:54:14.135Z,773.00
2023-05-25T09:55:14.078Z,775.00
2023-05-25T09:56:17.285Z,777.00
2023-05-25T09:57:14.107Z,781.00
2023-05-25T09:58:14.172Z,784.00
2023-05-25T09:59:14.141Z,788.00
2023-05-25T10:00:14.241Z,785.00
2023-05-25T10:01:14.164Z,787.00
2023-05-25T10:02:14.163Z,792.00
2023-05-25T10:03:17.388Z,791.00
2023-05-25T10:04:17.917Z,792.00
2023-05-25T10:05:14.391Z,791.00
2023-05-25T10:06:14.183Z,787.00
2023-05-25T10:07:14.217Z,789.00
2023-05-25T10:08:14.741Z,790.00
2023-05-25T10:09:14.828Z,790.00
2023-05-25T10:10:14.272Z,788.00
2023-05-25T10:11:14.206Z,788.00
2023-05-25T10:12:17.665Z,788.00
2023-05-25T10:13:14.246Z,788.00
2023-05-25T10:14:14.657Z,791.00
2023-05-25T10:15:14.270Z,792.00
2023-05-25T10:16:14.344Z,791.00
2023-05-25T10:17:14.261Z,793.00
2023-05-25T10:18:14.750Z,793.00
2023-05-25T10:19:14.312Z,796.00
2023-05-25T10:20:14.361Z,795.00
2023-05-25T10:21:14.656Z,795.00
2023-05-25T10:22:17.567Z,793.00
2023-05-25T10:23:14.378Z,793.00
2023-05-25T10:24:14.331Z,793.00
2023-05-25T10:25:14.815Z,795.00
2023-05-25T10:26:14.365Z,795.00
2023-05-25T10:27:26.206Z,796.00
2023-05-25T10:28:14.388Z,798.00
2023-05-25T10:29:15.648Z,802.00
2023-05-25T10:30:14.392Z,806.00
2023-05-25T10:31:14.668Z,809.00
2023-05-25T10:32:14.383Z,807.00
2023-05-25T10:33:14.822Z,805.00
2023-05-25T10:34:14.402Z,806.00
2023-05-25T10:35:14.444Z,807.00
2023-05-25T10:36:14.648Z,810.00
2023-05-25T10:37:15.453Z,813.00
2023-05-25T10:38:14.450Z,815.00
2023-05-25T10:39:14.905Z,815.00
2023-05-25T10:40:14.540Z,811.00
2023-05-25T10:41:14.660Z,812.00
2023-05-25T10:42:14.568Z,812.00
2023-05-25T10:43:14.757Z,814.00
2023-05-25T10:44:14.646Z,816.00
2023-05-25T10:45:14.656Z,818.00
2023-05-25T10:46:14.683Z,818.00
2023-05-25T10:47:14.793Z,816.00
2023-05-25T10:48:14.802Z,816.00
2023-05-25T10:49:15.151Z,817.00
2023-05-25T10:50:14.900Z,821.00
2023-05-25T10:51:14.868Z,823.00
2023-05-25T10:52:14.855Z,822.00
2023-05-25T10:53:14.884Z,822.00
2023-05-25T10:54:14.918Z,819.00
2023-05-25T10:55:15.153Z,822.00
2023-05-25T10:56:15.171Z,824.00
2023-05-25T10:57:14.997Z,826.00
2023-05-25T10:58:15.015Z,826.00
2023-05-25T10:59:15.158Z,828.00
2023-05-25T11:00:15.139Z,827.00
2023-05-25T11:01:15.251Z,827.00
2023-05-25T11:02:15.190Z,826.00
2023-05-25T11:03:15.134Z,826.00
2023-05-25T11:04:15.241Z,829.00
2023-05-25T11:05:15.183Z,829.00
2023-05-25T11:06:15.212Z,830.00
2023-05-25T11:07:15.263Z,825.00
2023-05-25T11:08:16.612Z,826.00
2023-05-25T11:09:15.680Z,827.00
2023-05-25T11:10:15.329Z,825.00
2023-05-25T11:11:15.325Z,823.00
2023-05-25T11:12:15.338Z,824.00
2023-05-25T11:13:15.364Z,827.00
2023-05-25T11:14:15.657Z,826.00
2023-05-25T11:15:15.709Z,828.00
2023-05-25T11:16:15.620Z,827.00
2023-05-25T11:17:15.747Z,827.00
2023-05-25T11:18:15.461Z,826.00
2023-05-25T11:19:15.659Z,830.00
2023-05-25T11:20:15.539Z,837.00
2023-05-25T11:21:15.508Z,838.00
2023-05-25T11:22:15.686Z,838.00
2023-05-25T11:23:15.576Z,839.00
2023-05-25T11:24:15.668Z,841.00
2023-05-25T11:25:15.569Z,840.00
2023-05-25T11:26:15.592Z,837.00
2023-05-25T11:27:15.646Z,836.00
2023-05-25T11:28:15.622Z,834.00
2023-05-25T11:29:15.629Z,834.00
2023-05-25T11:30:15.658Z,833.00
2023-05-25T11:31:15.690Z,832.00
2023-05-25T11:32:16.211Z,830.00
2023-05-25T11:33:15.711Z,831.00
2023-05-25T11:34:16.211Z,831.00
2023-05-25T11:35:15.725Z,831.00
2023-05-25T11:36:15.744Z,833.00
2023-05-25T11:37:15.797Z,833.00
2023-05-25T11:38:15.792Z,835.00
2023-05-25T11:39:22.303Z,835.00
2023-05-25T11:40:16.172Z,835.00
2023-05-25T11:41:15.804Z,836.00
2023-05-25T11:42:15.804Z,835.00
2023-05-25T11:43:15.824Z,832.00
2023-05-25T11:44:16.252Z,833.00
2023-05-25T11:45:16.178Z,833.00
2023-05-25T11:46:15.868Z,832.00
2023-05-25T11:47:15.852Z,834.00
2023-05-25T11:48:15.895Z,835.00
2023-05-25T11:49:15.875Z,833.00
2023-05-25T11:50:15.877Z,834.00
2023-05-25T11:51:16.182Z,834.00
2023-05-25T11:52:15.893Z,835.00
2023-05-25T11:53:15.885Z,837.00
2023-05-25T11:54:16.177Z,836.00
2023-05-25T11:55:15.926Z,837.00
2023-05-25T11:56:27.132Z,837.00
2023-05-25T11:57:15.944Z,839.00
2023-05-25T11:58:15.919Z,835.00
2023-05-25T11:59:15.927Z,834.00
2023-05-25T12:00:16.672Z,836.00
2023-05-25T12:01:15.950Z,839.00
2023-05-25T12:02:15.957Z,840.00
2023-05-25T12:03:16.042Z,841.00
2023-05-25T12:04:16.304Z,841.00
2023-05-25T12:05:16.067Z,841.00
2023-05-25T12:06:15.979Z,841.00
2023-05-25T12:07:15.980Z,841.00
2023-05-25T12:08:15.996Z,840.00
2023-05-25T12:09:17.179Z,839.00
2023-05-25T12:10:16.015Z,838.00
2023-05-25T12:11:16.252Z,839.00
2023-05-25T12:12:17.134Z,838.00
2023-05-25T12:13:15.996Z,838.00
2023-05-25T12:14:16.585Z,837.00
2023-05-25T12:15:18.961Z,838.00
2023-05-25T12:16:16.192Z,839.00
2023-05-25T12:17:16.183Z,838.00
2023-05-25T12:18:16.177Z,836.00
2023-05-25T12:19:16.098Z,837.00
2023-05-25T12:20:16.222Z,835.00
2023-05-25T12:21:16.167Z,832.00
2023-05-25T12:22:16.166Z,831.00
2023-05-25T12:23:16.178Z,828.00
2023-05-25T12:24:16.686Z,826.00
2023-05-25T12:25:16.690Z,828.00
2023-05-25T12:26:16.238Z,826.00
2023-05-25T12:27:16.401Z,821.00
2023-05-25T12:28:16.572Z,821.00
2023-05-25T12:29:16.258Z,818.00
2023-05-25T12:30:16.808Z,819.00
2023-05-25T12:31:16.329Z,819.00
2023-05-25T12:32:16.318Z,819.00
2023-05-25T12:33:16.387Z,818.00
2023-05-25T12:34:16.333Z,819.00
2023-05-25T12:35:16.330Z,821.00
2023-05-25T12:36:16.348Z,827.00
2023-05-25T12:37:16.339Z,825.00
2023-05-25T12:38:16.350Z,826.00